sensor_id;sensor_type;location;lat;lon;timestamp;P1;durP1;ratioP1;P2;durP2;ratioP2
20627;SDS011;10473;42.734;24.258;2023-03-23T00:01:19;4.33;;;2.83;;
20627;SDS011;10473;42.734;24.258;2023-03-23T00:03:52;2.93;;;2.40;;
20627;SDS011;10473;42.734;24.258;2023-03-23T00:06:23;2.63;;;1.73;;
20627;SDS011;10473;42.734;24.258;2023-03-23T00:08:52;3.67;;;2.07;;
20627;SDS011;10473;42.734;24.258;2023-03-23T00:11:25;2.47;;;1.70;;
20627;SDS011;10473;42.734;24.258;2023-03-23T00:13:55;2.37;;;2.03;;
20627;SDS011;10473;42.734;24.258;2023-03-23T00:16:27;2.10;;;1.70;;
20627;SDS011;10473;42.734;24.258;2023-03-23T00:19:00;3.43;;;2.10;;
20627;SDS011;10473;42.734;24.258;2023-03-23T00:21:31;2.13;;;1.80;;
20627;SDS011;10473;42.734;24.258;2023-03-23T00:24:01;2.00;;;1.77;;
20627;SDS011;10473;42.734;24.258;2023-03-23T00:26:30;2.60;;;1.83;;
20627;SDS011;10473;42.734;24.258;2023-03-23T00:29:00;2.87;;;2.10;;
20627;SDS011;10473;42.734;24.258;2023-03-23T00:31:29;2.13;;;1.93;;
20627;SDS011;10473;42.734;24.258;2023-03-23T00:34:02;5.20;;;2.70;;
20627;SDS011;10473;42.734;24.258;2023-03-23T00:36:31;3.83;;;2.57;;
20627;SDS011;10473;42.734;24.258;2023-03-23T00:39:02;4.33;;;3.37;;
20627;SDS011;10473;42.734;24.258;2023-03-23T00:41:30;5.03;;;3.87;;
20627;SDS011;10473;42.734;24.258;2023-03-23T00:43:59;5.53;;;4.07;;
20627;SDS011;10473;42.734;24.258;2023-03-23T00:46:27;3.90;;;2.70;;
20627;SDS011;10473;42.734;24.258;2023-03-23T00:48:55;3.30;;;2.47;;
20627;SDS011;10473;42.734;24.258;2023-03-23T00:51:24;2.27;;;1.73;;
20627;SDS011;10473;42.734;24.258;2023-03-23T00:53:52;2.90;;;2.53;;
20627;SDS011;10473;42.734;24.258;2023-03-23T00:56:21;2.80;;;2.10;;
20627;SDS011;10473;42.734;24.258;2023-03-23T00:58:49;3.70;;;2.37;;
20627;SDS011;10473;42.734;24.258;2023-03-23T01:01:17;2.37;;;2.07;;
20627;SDS011;10473;42.734;24.258;2023-03-23T01:03:45;5.53;;;2.60;;
20627;SDS011;10473;42.734;24.258;2023-03-23T01:06:12;3.03;;;2.20;;
20627;SDS011;10473;42.734;24.258;2023-03-23T01:09:06;3.60;;;2.57;;
20627;SDS011;10473;42.734;24.258;2023-03-23T01:11:35;4.50;;;2.20;;
20627;SDS011;10473;42.734;24.258;2023-03-23T01:14:04;3.30;;;2.00;;
20627;SDS011;10473;42.734;24.258;2023-03-23T01:16:32;2.20;;;1.70;;
20627;SDS011;10473;42.734;24.258;2023-03-23T01:19:00;2.33;;;1.87;;
20627;SDS011;10473;42.734;24.258;2023-03-23T01:21:28;2.47;;;2.07;;
20627;SDS011;10473;42.734;24.258;2023-03-23T01:23:55;2.40;;;2.20;;
20627;SDS011;10473;42.734;24.258;2023-03-23T01:26:26;2.83;;;1.83;;
20627;SDS011;10473;42.734;24.258;2023-03-23T01:28:54;3.80;;;2.67;;
20627;SDS011;10473;42.734;24.258;2023-03-23T01:31:23;2.53;;;2.33;;
20627;SDS011;10473;42.734;24.258;2023-03-23T01:33:52;3.70;;;2.43;;
20627;SDS011;10473;42.734;24.258;2023-03-23T01:36:22;4.33;;;3.10;;
20627;SDS011;10473;42.734;24.258;2023-03-23T01:38:51;3.40;;;2.30;;
20627;SDS011;10473;42.734;24.258;2023-03-23T01:41:20;2.77;;;2.43;;
20627;SDS011;10473;42.734;24.258;2023-03-23T01:44:00;5.10;;;3.50;;
20627;SDS011;10473;42.734;24.258;2023-03-23T01:46:43;5.73;;;4.07;;
20627;SDS011;10473;42.734;24.258;2023-03-23T01:49:12;5.40;;;3.43;;
20627;SDS011;10473;42.734;24.258;2023-03-23T01:51:45;5.53;;;2.70;;
20627;SDS011;10473;42.734;24.258;2023-03-23T01:54:17;3.87;;;2.67;;
20627;SDS011;10473;42.734;24.258;2023-03-23T01:56:49;1.60;;;1.50;;
20627;SDS011;10473;42.734;24.258;2023-03-23T01:59:22;2.23;;;1.80;;
20627;SDS011;10473;42.734;24.258;2023-03-23T02:02:12;3.03;;;1.77;;
20627;SDS011;10473;42.734;24.258;2023-03-23T02:04:43;2.23;;;2.03;;
20627;SDS011;10473;42.734;24.258;2023-03-23T02:07:12;2.17;;;1.97;;
20627;SDS011;10473;42.734;24.258;2023-03-23T02:09:41;2.57;;;2.20;;
20627;SDS011;10473;42.734;24.258;2023-03-23T02:12:09;3.33;;;2.53;;
20627;SDS011;10473;42.734;24.258;2023-03-23T02:14:39;2.90;;;2.30;;
20627;SDS011;10473;42.734;24.258;2023-03-23T02:17:07;2.93;;;2.33;;
20627;SDS011;10473;42.734;24.258;2023-03-23T02:19:49;3.93;;;2.80;;
20627;SDS011;10473;42.734;24.258;2023-03-23T02:22:42;6.00;;;3.43;;
20627;SDS011;10473;42.734;24.258;2023-03-23T02:25:28;5.83;;;2.73;;
20627;SDS011;10473;42.734;24.258;2023-03-23T02:28:26;3.77;;;2.57;;
20627;SDS011;10473;42.734;24.258;2023-03-23T02:31:09;2.87;;;2.30;;
20627;SDS011;10473;42.734;24.258;2023-03-23T02:33:48;4.20;;;2.60;;
20627;SDS011;10473;42.734;24.258;2023-03-23T02:36:21;3.20;;;2.60;;
20627;SDS011;10473;42.734;24.258;2023-03-23T02:38:55;2.10;;;1.90;;
20627;SDS011;10473;42.734;24.258;2023-03-23T02:41:30;3.80;;;3.03;;
20627;SDS011;10473;42.734;24.258;2023-03-23T02:44:02;3.97;;;2.53;;
20627;SDS011;10473;42.734;24.258;2023-03-23T02:46:32;3.57;;;2.93;;
20627;SDS011;10473;42.734;24.258;2023-03-23T02:49:02;2.83;;;2.57;;
20627;SDS011;10473;42.734;24.258;2023-03-23T02:51:33;4.10;;;2.73;;
20627;SDS011;10473;42.734;24.258;2023-03-23T02:54:02;4.03;;;3.33;;
20627;SDS011;10473;42.734;24.258;2023-03-23T02:56:32;4.43;;;2.80;;
20627;SDS011;10473;42.734;24.258;2023-03-23T02:59:07;3.47;;;2.67;;
20627;SDS011;10473;42.734;24.258;2023-03-23T03:04:33;3.30;;;2.70;;
20627;SDS011;10473;42.734;24.258;2023-03-23T03:07:07;3.27;;;2.87;;
20627;SDS011;10473;42.734;24.258;2023-03-23T03:09:51;2.47;;;2.23;;
20627;SDS011;10473;42.734;24.258;2023-03-23T03:12:25;4.03;;;2.97;;
20627;SDS011;10473;42.734;24.258;2023-03-23T03:15:04;4.27;;;2.77;;
20627;SDS011;10473;42.734;24.258;2023-03-23T03:17:41;5.10;;;3.23;;
20627;SDS011;10473;42.734;24.258;2023-03-23T03:20:43;3.30;;;2.23;;
20627;SDS011;10473;42.734;24.258;2023-03-23T03:23:15;2.70;;;2.10;;
20627;SDS011;10473;42.734;24.258;2023-03-23T03:25:45;3.63;;;2.50;;
20627;SDS011;10473;42.734;24.258;2023-03-23T03:28:20;3.23;;;2.30;;
20627;SDS011;10473;42.734;24.258;2023-03-23T03:30:53;4.53;;;2.87;;
20627;SDS011;10473;42.734;24.258;2023-03-23T03:33:23;3.67;;;2.67;;
20627;SDS011;10473;42.734;24.258;2023-03-23T03:35:55;3.50;;;2.53;;
20627;SDS011;10473;42.734;24.258;2023-03-23T03:38:24;6.80;;;4.90;;
20627;SDS011;10473;42.734;24.258;2023-03-23T03:40:54;3.70;;;2.40;;
20627;SDS011;10473;42.734;24.258;2023-03-23T03:43:23;5.57;;;3.37;;
20627;SDS011;10473;42.734;24.258;2023-03-23T03:45:51;4.97;;;2.93;;
20627;SDS011;10473;42.734;24.258;2023-03-23T03:48:18;5.33;;;3.27;;
20627;SDS011;10473;42.734;24.258;2023-03-23T03:50:47;5.27;;;3.10;;
20627;SDS011;10473;42.734;24.258;2023-03-23T03:53:16;3.37;;;2.57;;
20627;SDS011;10473;42.734;24.258;2023-03-23T03:55:44;4.67;;;3.63;;
20627;SDS011;10473;42.734;24.258;2023-03-23T03:58:16;7.50;;;3.57;;
20627;SDS011;10473;42.734;24.258;2023-03-23T04:01:06;7.70;;;4.03;;
20627;SDS011;10473;42.734;24.258;2023-03-23T04:03:38;7.23;;;4.20;;
20627;SDS011;10473;42.734;24.258;2023-03-23T04:06:14;5.97;;;3.47;;
20627;SDS011;10473;42.734;24.258;2023-03-23T04:08:43;5.97;;;3.50;;
20627;SDS011;10473;42.734;24.258;2023-03-23T04:11:12;8.53;;;4.40;;
20627;SDS011;10473;42.734;24.258;2023-03-23T04:13:43;4.77;;;3.10;;
20627;SDS011;10473;42.734;24.258;2023-03-23T04:16:20;5.37;;;3.77;;
20627;SDS011;10473;42.734;24.258;2023-03-23T04:18:48;4.03;;;3.17;;
20627;SDS011;10473;42.734;24.258;2023-03-23T04:21:18;6.07;;;4.50;;
20627;SDS011;10473;42.734;24.258;2023-03-23T04:23:49;8.27;;;4.97;;
20627;SDS011;10473;42.734;24.258;2023-03-23T04:26:19;5.20;;;3.70;;
20627;SDS011;10473;42.734;24.258;2023-03-23T04:28:49;5.77;;;3.47;;
20627;SDS011;10473;42.734;24.258;2023-03-23T04:31:34;5.10;;;3.57;;
20627;SDS011;10473;42.734;24.258;2023-03-23T04:34:31;3.27;;;2.53;;
20627;SDS011;10473;42.734;24.258;2023-03-23T04:37:01;5.13;;;3.63;;
20627;SDS011;10473;42.734;24.258;2023-03-23T04:39:32;5.50;;;3.90;;
20627;SDS011;10473;42.734;24.258;2023-03-23T04:42:03;6.00;;;3.47;;
20627;SDS011;10473;42.734;24.258;2023-03-23T04:44:54;3.87;;;3.33;;
20627;SDS011;10473;42.734;24.258;2023-03-23T04:47:32;5.00;;;3.77;;
20627;SDS011;10473;42.734;24.258;2023-03-23T04:50:07;7.23;;;6.07;;
20627;SDS011;10473;42.734;24.258;2023-03-23T04:52:38;7.93;;;5.57;;
20627;SDS011;10473;42.734;24.258;2023-03-23T04:55:12;7.23;;;4.53;;
20627;SDS011;10473;42.734;24.258;2023-03-23T04:57:45;5.83;;;3.57;;
20627;SDS011;10473;42.734;24.258;2023-03-23T05:00:35;5.43;;;4.17;;
20627;SDS011;10473;42.734;24.258;2023-03-23T05:03:04;6.20;;;4.13;;
20627;SDS011;10473;42.734;24.258;2023-03-23T05:05:33;4.27;;;3.67;;
20627;SDS011;10473;42.734;24.258;2023-03-23T05:08:05;4.30;;;2.73;;
20627;SDS011;10473;42.734;24.258;2023-03-23T05:10:39;5.77;;;3.70;;
20627;SDS011;10473;42.734;24.258;2023-03-23T05:13:14;5.00;;;3.30;;
20627;SDS011;10473;42.734;24.258;2023-03-23T05:15:44;10.07;;;4.17;;
20627;SDS011;10473;42.734;24.258;2023-03-23T05:18:12;6.50;;;3.73;;
20627;SDS011;10473;42.734;24.258;2023-03-23T05:20:40;4.70;;;4.03;;
20627;SDS011;10473;42.734;24.258;2023-03-23T05:23:14;4.47;;;3.43;;
20627;SDS011;10473;42.734;24.258;2023-03-23T05:25:51;8.43;;;3.50;;
20627;SDS011;10473;42.734;24.258;2023-03-23T05:28:20;7.17;;;3.77;;
20627;SDS011;10473;42.734;24.258;2023-03-23T05:30:55;5.50;;;4.10;;
20627;SDS011;10473;42.734;24.258;2023-03-23T05:33:28;6.30;;;4.70;;
20627;SDS011;10473;42.734;24.258;2023-03-23T05:36:15;5.73;;;5.07;;
20627;SDS011;10473;42.734;24.258;2023-03-23T05:39:21;5.43;;;3.93;;
20627;SDS011;10473;42.734;24.258;2023-03-23T05:42:02;5.43;;;3.40;;
20627;SDS011;10473;42.734;24.258;2023-03-23T05:44:46;5.60;;;3.87;;
20627;SDS011;10473;42.734;24.258;2023-03-23T05:47:14;6.23;;;4.30;;
20627;SDS011;10473;42.734;24.258;2023-03-23T05:49:49;7.37;;;4.17;;
20627;SDS011;10473;42.734;24.258;2023-03-23T05:52:18;6.50;;;4.23;;
20627;SDS011;10473;42.734;24.258;2023-03-23T05:54:47;5.60;;;3.80;;
20627;SDS011;10473;42.734;24.258;2023-03-23T05:57:17;7.60;;;5.53;;
20627;SDS011;10473;42.734;24.258;2023-03-23T05:59:52;18.50;;;7.40;;
20627;SDS011;10473;42.734;24.258;2023-03-23T06:02:23;33.33;;;13.70;;
20627;SDS011;10473;42.734;24.258;2023-03-23T06:04:54;11.73;;;7.03;;
20627;SDS011;10473;42.734;24.258;2023-03-23T06:07:30;7.63;;;5.17;;
20627;SDS011;10473;42.734;24.258;2023-03-23T06:10:01;7.37;;;4.27;;
20627;SDS011;10473;42.734;24.258;2023-03-23T06:12:38;10.07;;;4.87;;
20627;SDS011;10473;42.734;24.258;2023-03-23T06:15:26;4.17;;;2.73;;
20627;SDS011;10473;42.734;24.258;2023-03-23T06:17:57;9.93;;;4.73;;
20627;SDS011;10473;42.734;24.258;2023-03-23T06:20:31;4.80;;;3.23;;
20627;SDS011;10473;42.734;24.258;2023-03-23T06:23:09;5.43;;;3.67;;
20627;SDS011;10473;42.734;24.258;2023-03-23T06:25:37;6.53;;;5.03;;
20627;SDS011;10473;42.734;24.258;2023-03-23T06:28:10;7.60;;;4.30;;
20627;SDS011;10473;42.734;24.258;2023-03-23T06:30:42;5.53;;;4.07;;
20627;SDS011;10473;42.734;24.258;2023-03-23T06:33:09;5.37;;;3.40;;
20627;SDS011;10473;42.734;24.258;2023-03-23T06:35:57;6.00;;;3.33;;
20627;SDS011;10473;42.734;24.258;2023-03-23T06:38:41;4.70;;;3.87;;
20627;SDS011;10473;42.734;24.258;2023-03-23T06:41:09;4.47;;;2.97;;
20627;SDS011;10473;42.734;24.258;2023-03-23T06:43:38;5.87;;;3.50;;
20627;SDS011;10473;42.734;24.258;2023-03-23T06:46:13;4.43;;;3.07;;
20627;SDS011;10473;42.734;24.258;2023-03-23T06:48:40;6.07;;;4.23;;
20627;SDS011;10473;42.734;24.258;2023-03-23T06:51:12;8.10;;;3.73;;
20627;SDS011;10473;42.734;24.258;2023-03-23T06:53:44;8.77;;;4.07;;
20627;SDS011;10473;42.734;24.258;2023-03-23T06:56:13;11.87;;;5.47;;
20627;SDS011;10473;42.734;24.258;2023-03-23T06:58:43;8.77;;;5.37;;
20627;SDS011;10473;42.734;24.258;2023-03-23T07:01:13;7.03;;;3.37;;
20627;SDS011;10473;42.734;24.258;2023-03-23T07:03:50;4.90;;;4.10;;
20627;SDS011;10473;42.734;24.258;2023-03-23T07:06:28;7.63;;;4.67;;
20627;SDS011;10473;42.734;24.258;2023-03-23T07:08:59;10.83;;;6.17;;
20627;SDS011;10473;42.734;24.258;2023-03-23T07:11:28;4.83;;;3.50;;
20627;SDS011;10473;42.734;24.258;2023-03-23T07:14:02;2.63;;;2.23;;
20627;SDS011;10473;42.734;24.258;2023-03-23T07:16:30;3.83;;;2.97;;
20627;SDS011;10473;42.734;24.258;2023-03-23T07:19:00;5.17;;;3.20;;
20627;SDS011;10473;42.734;24.258;2023-03-23T07:21:28;4.77;;;3.27;;
20627;SDS011;10473;42.734;24.258;2023-03-23T07:23:56;3.47;;;2.97;;
20627;SDS011;10473;42.734;24.258;2023-03-23T07:26:37;5.27;;;3.80;;
20627;SDS011;10473;42.734;24.258;2023-03-23T07:29:07;3.90;;;2.83;;
20627;SDS011;10473;42.734;24.258;2023-03-23T07:31:40;5.10;;;2.77;;
20627;SDS011;10473;42.734;24.258;2023-03-23T07:34:09;5.10;;;3.37;;
20627;SDS011;10473;42.734;24.258;2023-03-23T07:36:46;4.93;;;2.87;;
20627;SDS011;10473;42.734;24.258;2023-03-23T07:39:14;3.77;;;2.43;;
20627;SDS011;10473;42.734;24.258;2023-03-23T07:41:43;3.40;;;2.40;;
20627;SDS011;10473;42.734;24.258;2023-03-23T07:44:21;3.73;;;2.43;;
20627;SDS011;10473;42.734;24.258;2023-03-23T07:47:14;3.10;;;2.40;;
20627;SDS011;10473;42.734;24.258;2023-03-23T07:49:45;2.97;;;1.70;;
20627;SDS011;10473;42.734;24.258;2023-03-23T07:52:27;2.87;;;1.60;;
20627;SDS011;10473;42.734;24.258;2023-03-23T07:54:56;4.37;;;3.20;;
20627;SDS011;10473;42.734;24.258;2023-03-23T07:57:34;2.83;;;2.17;;
20627;SDS011;10473;42.734;24.258;2023-03-23T08:00:06;2.90;;;2.00;;
20627;SDS011;10473;42.734;24.258;2023-03-23T08:02:43;3.70;;;1.63;;
20627;SDS011;10473;42.734;24.258;2023-03-23T08:05:31;3.13;;;1.50;;
20627;SDS011;10473;42.734;24.258;2023-03-23T08:08:18;1.40;;;1.30;;
20627;SDS011;10473;42.734;24.258;2023-03-23T08:11:05;0.90;;;0.70;;
20627;SDS011;10473;42.734;24.258;2023-03-23T08:13:41;1.90;;;1.40;;
20627;SDS011;10473;42.734;24.258;2023-03-23T08:16:34;8.70;;;4.00;;
20627;SDS011;10473;42.734;24.258;2023-03-23T08:19:07;13.50;;;4.73;;
20627;SDS011;10473;42.734;24.258;2023-03-23T08:22:00;1.30;;;1.13;;
20627;SDS011;10473;42.734;24.258;2023-03-23T08:24:33;1.30;;;1.20;;
20627;SDS011;10473;42.734;24.258;2023-03-23T08:27:20;1.17;;;1.00;;
20627;SDS011;10473;42.734;24.258;2023-03-23T08:30:14;0.80;;;0.70;;
20627;SDS011;10473;42.734;24.258;2023-03-23T08:32:46;0.80;;;0.70;;
20627;SDS011;10473;42.734;24.258;2023-03-23T08:35:28;0.80;;;0.60;;
20627;SDS011;10473;42.734;24.258;2023-03-23T08:38:13;0.83;;;0.83;;
20627;SDS011;10473;42.734;24.258;2023-03-23T08:41:01;1.27;;;0.97;;
20627;SDS011;10473;42.734;24.258;2023-03-23T08:43:51;2.23;;;0.87;;
20627;SDS011;10473;42.734;24.258;2023-03-23T08:46:37;0.77;;;0.70;;
20627;SDS011;10473;42.734;24.258;2023-03-23T08:49:35;0.90;;;0.63;;
20627;SDS011;10473;42.734;24.258;2023-03-23T08:52:11;1.17;;;1.00;;
20627;SDS011;10473;42.734;24.258;2023-03-23T08:54:53;0.80;;;0.80;;
20627;SDS011;10473;42.734;24.258;2023-03-23T08:57:40;1.67;;;1.00;;
20627;SDS011;10473;42.734;24.258;2023-03-23T09:00:21;0.73;;;0.73;;
20627;SDS011;10473;42.734;24.258;2023-03-23T09:03:14;1.60;;;0.73;;
20627;SDS011;10473;42.734;24.258;2023-03-23T09:06:14;1.40;;;1.17;;
20627;SDS011;10473;42.734;24.258;2023-03-23T09:08:45;1.93;;;1.30;;
20627;SDS011;10473;42.734;24.258;2023-03-23T09:11:12;1.73;;;1.40;;
20627;SDS011;10473;42.734;24.258;2023-03-23T09:13:40;2.63;;;1.70;;
20627;SDS011;10473;42.734;24.258;2023-03-23T09:16:08;1.43;;;1.17;;
20627;SDS011;10473;42.734;24.258;2023-03-23T09:18:36;2.00;;;1.67;;
20627;SDS011;10473;42.734;24.258;2023-03-23T09:21:04;2.07;;;1.30;;
20627;SDS011;10473;42.734;24.258;2023-03-23T09:23:33;1.57;;;1.00;;
20627;SDS011;10473;42.734;24.258;2023-03-23T09:26:01;2.53;;;1.20;;
20627;SDS011;10473;42.734;24.258;2023-03-23T09:28:30;1.37;;;1.20;;
20627;SDS011;10473;42.734;24.258;2023-03-23T09:30:58;5.03;;;2.23;;
20627;SDS011;10473;42.734;24.258;2023-03-23T09:33:26;2.40;;;1.47;;
20627;SDS011;10473;42.734;24.258;2023-03-23T09:35:54;1.47;;;1.37;;
20627;SDS011;10473;42.734;24.258;2023-03-23T09:38:22;1.20;;;1.10;;
20627;SDS011;10473;42.734;24.258;2023-03-23T09:40:53;1.40;;;0.87;;
20627;SDS011;10473;42.734;24.258;2023-03-23T09:46:30;1.60;;;1.20;;
20627;SDS011;10473;42.734;24.258;2023-03-23T09:49:08;1.73;;;1.20;;
20627;SDS011;10473;42.734;24.258;2023-03-23T09:51:41;1.70;;;1.13;;
20627;SDS011;10473;42.734;24.258;2023-03-23T09:54:14;1.33;;;1.07;;
20627;SDS011;10473;42.734;24.258;2023-03-23T09:56:48;3.20;;;1.23;;
20627;SDS011;10473;42.734;24.258;2023-03-23T09:59:23;2.73;;;1.63;;
20627;SDS011;10473;42.734;24.258;2023-03-23T10:01:55;2.53;;;1.50;;
20627;SDS011;10473;42.734;24.258;2023-03-23T10:04:34;2.30;;;1.80;;
20627;SDS011;10473;42.734;24.258;2023-03-23T10:07:08;4.17;;;2.00;;
20627;SDS011;10473;42.734;24.258;2023-03-23T10:09:38;2.30;;;1.67;;
20627;SDS011;10473;42.734;24.258;2023-03-23T10:12:10;1.00;;;0.90;;
20627;SDS011;10473;42.734;24.258;2023-03-23T10:14:47;8.13;;;1.63;;
20627;SDS011;10473;42.734;24.258;2023-03-23T10:17:26;1.67;;;1.10;;
20627;SDS011;10473;42.734;24.258;2023-03-23T10:19:58;1.33;;;1.23;;
20627;SDS011;10473;42.734;24.258;2023-03-23T10:22:34;4.33;;;1.27;;
20627;SDS011;10473;42.734;24.258;2023-03-23T10:25:14;2.63;;;0.83;;
20627;SDS011;10473;42.734;24.258;2023-03-23T10:27:48;1.57;;;1.40;;
20627;SDS011;10473;42.734;24.258;2023-03-23T10:30:24;3.93;;;1.73;;
20627;SDS011;10473;42.734;24.258;2023-03-23T10:32:57;3.97;;;1.50;;
20627;SDS011;10473;42.734;24.258;2023-03-23T10:35:34;2.13;;;1.40;;
20627;SDS011;10473;42.734;24.258;2023-03-23T10:38:06;1.87;;;0.93;;
20627;SDS011;10473;42.734;24.258;2023-03-23T10:40:45;1.30;;;1.20;;
20627;SDS011;10473;42.734;24.258;2023-03-23T10:43:18;2.83;;;1.20;;
20627;SDS011;10473;42.734;24.258;2023-03-23T10:45:48;2.37;;;1.10;;
20627;SDS011;10473;42.734;24.258;2023-03-23T10:48:23;1.50;;;1.10;;
20627;SDS011;10473;42.734;24.258;2023-03-23T10:50:56;0.93;;;0.87;;
20627;SDS011;10473;42.734;24.258;2023-03-23T10:53:29;0.80;;;0.80;;
20627;SDS011;10473;42.734;24.258;2023-03-23T10:56:00;1.57;;;1.33;;
20627;SDS011;10473;42.734;24.258;2023-03-23T10:58:30;1.93;;;1.30;;
20627;SDS011;10473;42.734;24.258;2023-03-23T11:00:59;1.20;;;0.90;;
20627;SDS011;10473;42.734;24.258;2023-03-23T11:03:33;2.03;;;1.30;;
20627;SDS011;10473;42.734;24.258;2023-03-23T11:06:07;1.20;;;1.10;;
20627;SDS011;10473;42.734;24.258;2023-03-23T11:08:38;1.57;;;1.17;;
20627;SDS011;10473;42.734;24.258;2023-03-23T11:11:15;1.70;;;1.00;;
20627;SDS011;10473;42.734;24.258;2023-03-23T11:13:46;1.87;;;1.17;;
20627;SDS011;10473;42.734;24.258;2023-03-23T11:16:23;0.93;;;0.80;;
20627;SDS011;10473;42.734;24.258;2023-03-23T11:18:52;1.17;;;0.97;;
20627;SDS011;10473;42.734;24.258;2023-03-23T11:21:21;1.30;;;0.77;;
20627;SDS011;10473;42.734;24.258;2023-03-23T11:23:50;1.20;;;1.10;;
20627;SDS011;10473;42.734;24.258;2023-03-23T11:26:21;1.53;;;1.33;;
20627;SDS011;10473;42.734;24.258;2023-03-23T11:28:55;1.73;;;1.27;;
20627;SDS011;10473;42.734;24.258;2023-03-23T11:31:27;0.70;;;0.70;;
20627;SDS011;10473;42.734;24.258;2023-03-23T11:33:59;1.03;;;0.87;;
20627;SDS011;10473;42.734;24.258;2023-03-23T11:36:37;1.03;;;0.73;;
20627;SDS011;10473;42.734;24.258;2023-03-23T11:39:21;1.00;;;0.83;;
20627;SDS011;10473;42.734;24.258;2023-03-23T11:41:51;1.40;;;1.30;;
20627;SDS011;10473;42.734;24.258;2023-03-23T11:44:21;1.10;;;0.83;;
20627;SDS011;10473;42.734;24.258;2023-03-23T11:46:59;1.27;;;1.00;;
20627;SDS011;10473;42.734;24.258;2023-03-23T11:49:37;2.03;;;0.87;;
20627;SDS011;10473;42.734;24.258;2023-03-23T11:52:13;0.83;;;0.83;;
20627;SDS011;10473;42.734;24.258;2023-03-23T11:54:54;1.33;;;1.13;;
20627;SDS011;10473;42.734;24.258;2023-03-23T11:57:29;1.37;;;1.10;;
20627;SDS011;10473;42.734;24.258;2023-03-23T11:59:58;1.30;;;0.80;;
20627;SDS011;10473;42.734;24.258;2023-03-23T12:02:42;1.97;;;1.50;;
20627;SDS011;10473;42.734;24.258;2023-03-23T12:08:22;1.83;;;1.50;;
20627;SDS011;10473;42.734;24.258;2023-03-23T12:11:01;1.77;;;1.10;;
20627;SDS011;10473;42.734;24.258;2023-03-23T12:13:51;1.70;;;1.60;;
20627;SDS011;10473;42.734;24.258;2023-03-23T12:16:32;1.60;;;1.50;;
20627;SDS011;10473;42.734;24.258;2023-03-23T12:19:37;3.07;;;2.77;;
20627;SDS011;10473;42.734;24.258;2023-03-23T12:22:19;1.20;;;1.00;;
20627;SDS011;10473;42.734;24.258;2023-03-23T12:24:58;2.00;;;1.43;;
20627;SDS011;10473;42.734;24.258;2023-03-23T12:27:42;1.87;;;1.10;;
20627;SDS011;10473;42.734;24.258;2023-03-23T12:30:20;0.97;;;0.80;;
20627;SDS011;10473;42.734;24.258;2023-03-23T12:33:09;0.73;;;0.60;;
20627;SDS011;10473;42.734;24.258;2023-03-23T12:35:50;1.07;;;0.87;;
20627;SDS011;10473;42.734;24.258;2023-03-23T12:38:32;1.37;;;0.90;;
20627;SDS011;10473;42.734;24.258;2023-03-23T12:41:15;2.20;;;2.00;;
20627;SDS011;10473;42.734;24.258;2023-03-23T12:43:50;1.57;;;1.07;;
20627;SDS011;10473;42.734;24.258;2023-03-23T12:46:28;0.93;;;0.90;;
20627;SDS011;10473;42.734;24.258;2023-03-23T12:49:15;1.13;;;1.03;;
20627;SDS011;10473;42.734;24.258;2023-03-23T12:51:49;1.60;;;1.10;;
20627;SDS011;10473;42.734;24.258;2023-03-23T12:54:24;1.77;;;1.10;;
20627;SDS011;10473;42.734;24.258;2023-03-23T12:56:59;1.20;;;1.07;;
20627;SDS011;10473;42.734;24.258;2023-03-23T12:59:32;1.37;;;0.93;;
20627;SDS011;10473;42.734;24.258;2023-03-23T13:02:10;1.60;;;1.30;;
20627;SDS011;10473;42.734;24.258;2023-03-23T13:04:43;1.53;;;1.43;;
20627;SDS011;10473;42.734;24.258;2023-03-23T13:10:07;3.03;;;2.20;;
20627;SDS011;10473;42.734;24.258;2023-03-23T13:12:45;1.73;;;1.40;;
20627;SDS011;10473;42.734;24.258;2023-03-23T13:15:20;1.00;;;0.90;;
20627;SDS011;10473;42.734;24.258;2023-03-23T13:17:58;1.67;;;1.53;;
20627;SDS011;10473;42.734;24.258;2023-03-23T13:20:41;2.07;;;1.50;;
20627;SDS011;10473;42.734;24.258;2023-03-23T13:23:18;1.10;;;1.00;;
20627;SDS011;10473;42.734;24.258;2023-03-23T13:25:52;1.50;;;1.27;;
20627;SDS011;10473;42.734;24.258;2023-03-23T13:28:24;1.93;;;1.73;;
20627;SDS011;10473;42.734;24.258;2023-03-23T13:31:20;1.30;;;1.17;;
20627;SDS011;10473;42.734;24.258;2023-03-23T13:33:52;2.67;;;2.47;;
20627;SDS011;10473;42.734;24.258;2023-03-23T13:36:28;1.63;;;1.40;;
20627;SDS011;10473;42.734;24.258;2023-03-23T13:38:58;2.27;;;1.87;;
20627;SDS011;10473;42.734;24.258;2023-03-23T13:41:27;4.50;;;4.10;;
20627;SDS011;10473;42.734;24.258;2023-03-23T13:44:13;1.93;;;1.53;;
20627;SDS011;10473;42.734;24.258;2023-03-23T13:46:53;1.00;;;0.80;;
20627;SDS011;10473;42.734;24.258;2023-03-23T13:49:51;2.87;;;2.60;;
20627;SDS011;10473;42.734;24.258;2023-03-23T13:52:36;1.27;;;1.17;;
20627;SDS011;10473;42.734;24.258;2023-03-23T13:55:21;2.57;;;1.60;;
20627;SDS011;10473;42.734;24.258;2023-03-23T13:57:58;8.80;;;6.90;;
20627;SDS011;10473;42.734;24.258;2023-03-23T14:00:43;2.67;;;2.00;;
20627;SDS011;10473;42.734;24.258;2023-03-23T14:03:14;1.67;;;1.57;;
20627;SDS011;10473;42.734;24.258;2023-03-23T14:05:48;1.27;;;1.17;;
20627;SDS011;10473;42.734;24.258;2023-03-23T14:08:24;1.40;;;1.10;;
20627;SDS011;10473;42.734;24.258;2023-03-23T14:11:09;1.97;;;1.00;;
20627;SDS011;10473;42.734;24.258;2023-03-23T14:13:41;0.90;;;0.80;;
20627;SDS011;10473;42.734;24.258;2023-03-23T14:16:16;2.07;;;1.37;;
20627;SDS011;10473;42.734;24.258;2023-03-23T14:19:15;2.10;;;1.23;;
20627;SDS011;10473;42.734;24.258;2023-03-23T14:21:49;2.97;;;1.73;;
20627;SDS011;10473;42.734;24.258;2023-03-23T14:24:22;1.07;;;0.90;;
20627;SDS011;10473;42.734;24.258;2023-03-23T14:26:51;0.70;;;0.70;;
20627;SDS011;10473;42.734;24.258;2023-03-23T14:29:20;1.80;;;0.83;;
20627;SDS011;10473;42.734;24.258;2023-03-23T14:31:52;1.83;;;1.10;;
20627;SDS011;10473;42.734;24.258;2023-03-23T14:34:22;1.93;;;1.17;;
20627;SDS011;10473;42.734;24.258;2023-03-23T14:36:53;1.43;;;0.83;;
20627;SDS011;10473;42.734;24.258;2023-03-23T14:39:24;1.43;;;1.03;;
20627;SDS011;10473;42.734;24.258;2023-03-23T14:41:54;1.07;;;0.97;;
20627;SDS011;10473;42.734;24.258;2023-03-23T14:44:23;3.37;;;2.03;;
20627;SDS011;10473;42.734;24.258;2023-03-23T14:46:54;1.50;;;1.07;;
20627;SDS011;10473;42.734;24.258;2023-03-23T14:49:35;0.93;;;0.87;;
20627;SDS011;10473;42.734;24.258;2023-03-23T14:52:08;1.13;;;1.03;;
20627;SDS011;10473;42.734;24.258;2023-03-23T14:54:39;2.33;;;1.33;;
20627;SDS011;10473;42.734;24.258;2023-03-23T14:57:12;1.13;;;1.00;;
20627;SDS011;10473;42.734;24.258;2023-03-23T14:59:41;1.33;;;1.00;;
20627;SDS011;10473;42.734;24.258;2023-03-23T15:02:10;1.83;;;1.20;;
20627;SDS011;10473;42.734;24.258;2023-03-23T15:04:42;0.83;;;0.77;;
20627;SDS011;10473;42.734;24.258;2023-03-23T15:07:13;1.70;;;1.10;;
20627;SDS011;10473;42.734;24.258;2023-03-23T15:09:44;1.27;;;1.10;;
20627;SDS011;10473;42.734;24.258;2023-03-23T15:12:19;1.40;;;1.20;;
20627;SDS011;10473;42.734;24.258;2023-03-23T15:14:49;1.97;;;1.30;;
20627;SDS011;10473;42.734;24.258;2023-03-23T15:17:20;1.40;;;1.30;;
20627;SDS011;10473;42.734;24.258;2023-03-23T15:19:50;1.67;;;1.20;;
20627;SDS011;10473;42.734;24.258;2023-03-23T15:22:22;2.93;;;1.80;;
20627;SDS011;10473;42.734;24.258;2023-03-23T15:25:00;6.47;;;3.67;;
20627;SDS011;10473;42.734;24.258;2023-03-23T15:27:32;2.80;;;1.77;;
20627;SDS011;10473;42.734;24.258;2023-03-23T15:30:11;1.23;;;1.03;;